Latest Weather Observations for Trepell

IDQ60801

Issued at 7:35 am EST Saturday 20 September 2014 (issued every 30 minutes, with the page automatically refreshed every 10 minutes)

About weather observations | Map of weather stations | Latest weather observations for QLD | Other Formats
Station Details ID: 037036 Name: TREPELL AIRPORT Lat: -21.84 Lon: 140.89 Height: 266.2 m
Data from the previous 72 hours. | See also: Recent months at Trepell
Date/Time
EST
Temp
°C
App
Temp
°C
Dew
Point
Rel
Hum
%
Delta-T
°C
Wind Press
QNH
hPa
Press
MSL
hPa
Rain
since 9 am
mm
Dir
 
Spd
km/h
Gust
km/h
Spd
kts
Gust
kts
20/07:30am 19.0 15.4 -3.8 21 9.3 ENE 6 9 3 5 1018.8 1017.6 0.0
20/07:00am 16.1 11.8 -4.4 24 8.1 NNE 9 11 5 6 1018.2 1017.0 0.0
20/06:30am 16.0 12.1 -4.5 24 8.1 NNE 7 9 4 5 1018.2 1017.0 0.0
20/06:00am 15.8 11.5 -4.7 24 8.0 NNE 9 11 5 6 1017.9 1016.7 0.0
20/05:30am 17.7 14.1 -3.7 23 8.7 NE 6 7 3 4 1017.8 1016.6 0.0
20/05:00am 17.6 13.8 -3.7 23 8.6 ESE 7 11 4 6 1017.3 1016.1 0.0
20/04:30am 18.0 13.9 -2.8 24 8.6 SE 9 11 5 6 1016.8 1015.6 0.0
20/04:00am 18.6 13.4 -2.9 23 9.0 SE 15 17 8 9 1017.0 1015.8 0.0
20/03:30am 18.9 14.1 -2.7 23 9.1 ESE 13 17 7 9 1016.9 1015.7 0.0
20/03:00am 18.2 14.3 -4.5 21 9.1 E 7 9 4 5 1017.4 1016.2 0.0
20/02:30am 18.4 14.2 -4.3 21 9.2 E 9 13 5 7 1017.6 1016.4 0.0
20/02:00am 20.1 14.1 -2.9 21 9.7 SE 19 22 10 12 1017.8 1016.6 0.0
20/01:30am 20.3 14.3 -2.7 21 9.8 SE 19 20 10 11 1018.0 1016.8 0.0
20/01:00am 21.2 15.6 -2.6 20 10.2 SE 17 24 9 13 1018.3 1017.1 0.0
20/12:30am 21.2 15.3 -2.6 20 10.2 SE 19 24 10 13 1018.4 1017.2 0.0
20/12:00am 22.8 15.9 -2.7 18 11.1 SSE 24 30 13 16 1018.5 1017.3 0.0
 
Date/Time
EST
Temp
°C
App
Temp
°C
Dew
Point
Rel
Hum
%
Delta-T
°C
Wind Press
QNH
hPa
Press
MSL
hPa
Rain
since 9 am
mm
Dir
 
Spd
km/h
Gust
km/h
Spd
kts
Gust
kts
19/11:30pm 22.9 16.4 -2.6 18 11.1 SSE 22 28 12 15 1018.8 1017.6 0.0
19/11:00pm 23.1 17.0 -2.5 18 11.2 SSE 20 24 11 13 1018.9 1017.7 0.0
19/10:30pm 23.3 17.4 -2.3 18 11.3 SSE 19 24 10 13 1018.7 1017.5 0.0
19/10:00pm 23.1 17.7 -4.1 16 11.5 SSE 15 19 8 10 1018.7 1017.5 0.0
19/09:30pm 24.6 19.0 -2.9 16 12.1 SE 17 20 9 11 1018.6 1017.4 0.0
19/09:00pm 23.9 18.4 -1.8 18 11.5 SSE 17 19 9 10 1018.5 1017.3 0.0
19/08:30pm 24.2 18.9 -3.2 16 12.0 SSE 15 17 8 9 1018.2 1017.0 0.0
19/08:00pm 25.1 20.0 -1.6 17 12.1 SSE 15 17 8 9 1017.7 1016.5 0.0
19/07:30pm 25.8 21.1 -4.7 13 13.1 SSE 11 15 6 8 1017.2 1016.0 0.0
19/07:00pm 27.5 22.2 -3.3 13 13.8 SSE 15 19 8 10 1016.7 1015.5 0.0
19/06:30pm 29.0 23.4 -3.2 12 14.6 SSE 17 26 9 14 1016.4 1015.2 0.0
19/06:00pm 30.1 23.5 -3.6 11 15.3 S 22 30 12 16 1015.8 1014.6 0.0
19/05:30pm 31.1 25.1 -2.8 11 15.7 S 19 26 10 14 1015.5 1014.3 0.0
19/05:00pm 31.3 25.2 -2.6 11 15.8 S 20 32 11 17 1015.2 1014.0 0.0
19/04:30pm 32.0 26.3 -3.4 10 16.4 SSW 17 24 9 13 1015.0 1013.8 0.0
19/04:00pm 31.9 27.4 -3.5 10 16.3 SSW 11 28 6 15 1015.0 1013.8 0.0
19/03:30pm 31.3 24.6 -3.9 10 16.1 SSE 22 35 12 19 1015.3 1014.1 0.0
19/03:00pm 32.0 26.0 -3.4 10 16.4 SSE 19 30 10 16 1015.6 1014.4 0.0
19/02:30pm 32.1 26.1 -3.3 10 16.4 SSE 19 33 10 18 1016.1 1014.8 0.0
19/02:00pm 30.8 25.0 -4.3 10 15.8 SSE 17 28 9 15 1016.7 1015.5 0.0
19/01:30pm 30.8 25.8 -4.3 10 15.9 S 13 24 7 13 1017.2 1016.0 0.0
19/01:00pm 30.5 26.2 -4.5 10 15.7 E 9 19 5 10 1017.7 1016.5 0.0
19/12:30pm 29.7 24.7 -3.9 11 15.1 ESE 13 22 7 12 1018.2 1017.0 0.0
19/12:00pm 29.8 25.1 -5.1 10 15.4 ESE 11 19 6 10 1018.7 1017.5 0.0
19/11:30am 28.6 23.3 -7.3 9 15.1 ESE 13 19 7 10 1019.4 1018.2 0.0
19/11:00am 27.9 22.5 -7.9 9 14.8 ESE 13 20 7 11 1020.1 1018.9 0.0
19/10:30am 26.9 21.7 -6.0 11 14.0 E 13 20 7 11 1020.5 1019.3 0.0
19/10:00am 26.1 20.2 -5.5 12 13.4 ESE 17 22 9 12 1020.8 1019.6 0.0
19/09:30am 24.3 18.4 -5.8 13 12.5 ESE 17 22 9 12 1021.0 1019.8 0.0
19/09:00am 22.6 16.3 -6.2 14 11.7 ESE 19 26 10 14 1021.1 1019.9 0.0
19/08:30am 20.2 16.1 -6.4 16 10.5 ESE 7 11 4 6 1020.8 1019.6 0.0
19/08:00am 17.6 13.9 -8.5 16 9.6 SE 4 6 2 3 1020.5 1019.3 0.0
19/07:30am 15.2 10.5 -8.9 18 8.5 SW 9 11 5 6 1019.9 1018.7 0.0
19/07:00am 12.8 8.6 -10.2 19 7.6 W 6 7 3 4 1019.7 1018.6 0.0
19/06:30am 11.4 6.2 -10.7 20 7.2 SW 11 13 6 7 1019.2 1018.0 0.0
19/06:00am 11.5 6.7 -10.6 20 7.2 WSW 9 9 5 5 1019.1 1017.9 0.0
19/05:30am 12.4 8.1 -11.2 18 7.7 WSW 6 7 3 4 1018.9 1017.7 0.0
19/05:00am 12.1 7.8 -11.5 18 7.6 W 6 7 3 4 1018.6 1017.4 0.0
19/04:30am 12.4 7.5 -11.2 18 7.7 WSW 9 9 5 5 1018.7 1017.5 0.0
19/04:00am 13.9 9.5 -10.0 18 8.1 WSW 7 7 4 4 1018.6 1017.4 0.0
19/03:30am 13.5 9.1 -10.3 18 8.0 WSW 7 9 4 5 1018.7 1017.5 0.0
19/03:00am 13.6 9.2 -10.2 18 8.0 SW 7 9 4 5 1018.8 1017.6 0.0
19/02:30am 14.4 9.6 -10.3 17 8.4 SSW 9 11 5 6 1019.1 1017.9 0.0
19/02:00am 14.4 9.2 -10.3 17 8.4 SSW 11 13 6 7 1019.2 1018.0 0.0
19/01:30am 14.6 9.4 -10.9 16 8.6 SSW 11 15 6 8 1019.3 1018.1 0.0
19/01:00am 15.0 9.4 -10.6 16 8.7 SSW 13 15 7 8 1019.5 1018.4 0.0
19/12:30am 15.6 10.1 -9.3 17 8.8 SSW 13 17 7 9 1019.6 1018.5 0.0
19/12:00am 15.8 10.3 -9.9 16 8.9 SSW 13 15 7 8 1019.9 1018.7 0.0
 
Date/Time
EST
Temp
°C
App
Temp
°C
Dew
Point
Rel
Hum
%
Delta-T
°C
Wind Press
QNH
hPa
Press
MSL
hPa
Rain
since 9 am
mm
Dir
 
Spd
km/h
Gust
km/h
Spd
kts
Gust
kts
18/11:30pm 16.9 12.2 -9.0 16 9.3 SW 9 11 5 6 1019.7 1018.6 0.0
18/11:00pm 17.5 12.8 -8.6 16 9.5 SSW 9 9 5 5 1019.9 1018.7 0.0
18/10:30pm 18.1 13.0 -8.9 15 9.9 SSW 11 13 6 7 1020.0 1018.8 0.0
18/10:00pm 18.0 13.4 -8.2 16 9.7 S 9 11 5 6 1019.9 1018.7 0.0
18/09:30pm 19.8 15.2 -7.5 15 10.5 S 9 11 5 6 1019.6 1018.5 0.0
18/09:00pm 20.4 15.8 -8.0 14 10.8 SSW 9 11 5 6 1019.2 1018.0 0.0
18/08:30pm 22.4 17.2 -6.4 14 11.6 S 13 17 7 9 1018.8 1017.6 0.0
18/08:00pm 22.5 17.7 -6.3 14 11.6 S 11 13 6 7 1018.5 1017.3 0.0
18/07:30pm 24.1 18.9 -6.0 13 12.4 S 13 17 7 9 1018.0 1016.8 0.0
18/07:00pm 25.7 19.9 -4.7 13 13.0 S 17 20 9 11 1017.7 1016.5 0.0
18/06:30pm 26.8 20.4 -4.9 12 13.7 S 20 28 11 15 1017.3 1016.1 0.0
18/06:00pm 28.0 20.9 -4.0 12 14.2 SSW 24 33 13 18 1016.9 1015.7 0.0
18/05:30pm 28.8 21.4 -3.4 12 14.5 SSW 26 33 14 18 1016.7 1015.5 0.0
18/05:00pm 29.2 21.0 -4.3 11 14.9 SSW 30 39 16 21 1016.5 1015.3 0.0
18/04:30pm 30.0 23.4 -3.6 11 15.3 SSW 22 32 12 17 1016.3 1015.1 0.0
18/04:00pm 30.2 23.2 -3.5 11 15.3 SSW 24 33 13 18 1016.4 1015.2 0.0
18/03:30pm 30.6 24.4 -3.2 11 15.5 SSW 20 32 11 17 1016.5 1015.3 0.0
18/03:00pm 30.7 24.5 -4.4 10 15.8 S 19 30 10 16 1016.9 1015.7 0.0
18/02:30pm 30.0 25.1 -3.6 11 15.3 S 13 22 7 12 1017.1 1015.9 0.0
18/02:00pm 30.4 24.4 -3.3 11 15.4 SSW 19 32 10 17 1017.5 1016.3 0.0
18/01:30pm 28.8 23.8 -4.6 11 14.8 SSE 13 28 7 15 1018.1 1016.9 0.0
18/01:00pm 28.0 22.1 -5.2 11 14.4 SE 17 26 9 14 1018.6 1017.4 0.0
18/12:30pm 27.8 22.3 -5.3 11 14.3 SSE 15 24 8 13 1019.4 1018.2 0.0
18/12:00pm 27.2 21.3 -5.8 11 14.0 SSE 17 24 9 13 1020.2 1019.0 0.0
18/11:30am 26.1 20.2 -5.5 12 13.4 SSE 17 24 9 13 1020.9 1019.7 0.0
18/11:00am 25.3 19.2 -4.1 14 12.7 SE 19 28 10 15 1021.4 1020.2 0.0
18/10:30am 25.8 19.5 -3.7 14 12.9 SSE 20 28 11 15 1021.9 1020.7 0.0
18/10:00am 24.7 18.3 -2.0 17 11.9 SE 22 30 12 16 1022.2 1021.0 0.0
18/09:30am 23.2 15.9 -3.2 17 11.4 SE 26 37 14 20 1022.2 1021.0 0.0
18/09:00am 22.1 14.8 -2.6 19 10.7 SE 26 35 14 19 1022.3 1021.1 0.0
18/08:30am 21.1 14.4 -1.4 22 9.9 SSE 24 33 13 18 1022.2 1021.0 0.0
18/08:00am 18.6 14.3 -1.8 25 8.7 S 11 13 6 7 1022.1 1020.9 0.0
18/07:30am 16.7 12.7 -1.9 28 7.8 SSW 9 11 5 6 1021.6 1020.4 0.0
18/07:00am 14.5 10.1 -2.4 31 6.8 SSW 11 13 6 7 1021.3 1020.1 0.0
18/06:30am 13.4 9.3 -2.9 32 6.5 S 9 13 5 7 1021.1 1019.9 0.0
18/06:00am 14.0 10.0 -2.4 32 6.6 SW 9 11 5 6 1020.8 1019.6 0.0
18/05:30am 14.0 9.9 -2.8 31 6.7 SW 9 11 5 6 1020.4 1019.2 0.0
18/05:00am 15.1 11.5 -1.9 31 7.0 SSW 7 9 4 5 1020.1 1018.9 0.0
18/04:30am 15.0 10.9 -2.9 29 7.2 SSW 9 11 5 6 1019.9 1018.7 0.0
18/04:00am 15.4 11.5 -1.6 31 7.0 S 9 11 5 6 1019.9 1018.7 0.0
18/03:30am 14.9 10.3 -3.9 27 7.4 SSW 11 11 6 6 1019.6 1018.5 0.0
18/03:00am 15.3 11.1 -3.6 27 7.5 SSW 9 11 5 6 1019.6 1018.5 0.0
18/02:30am 15.6 11.4 -4.3 25 7.8 SSW 9 9 5 5 1019.9 1018.7 0.0
18/02:00am 16.6 11.6 -4.0 24 8.2 S 13 15 7 8 1019.9 1018.7 0.0
18/01:30am 16.8 11.8 -4.4 23 8.4 SSW 13 15 7 8 1020.1 1018.9 0.0
18/01:00am 17.2 12.8 -5.9 20 8.9 SSW 9 11 5 6 1020.0 1018.8 0.0
18/12:30am 17.6 13.2 -6.3 19 9.2 S 9 11 5 6 1020.1 1018.9 0.0
18/12:00am 18.5 13.8 -5.5 19 9.5 S 11 13 6 7 1019.9 1018.7 0.0
 
Date/Time
EST
Temp
°C
App
Temp
°C
Dew
Point
Rel
Hum
%
Delta-T
°C
Wind Press
QNH
hPa
Press
MSL
hPa
Rain
since 9 am
mm
Dir
 
Spd
km/h
Gust
km/h
Spd
kts
Gust
kts
17/11:30pm 18.9 14.6 -5.2 19 9.6 S 9 17 5 9 1019.7 1018.6 0.0
17/11:00pm 18.7 14.2 -6.8 17 9.8 S 9 9 5 5 1019.7 1018.6 0.0
17/10:30pm 19.2 14.4 -6.4 17 10.0 S 11 15 6 8 1019.6 1018.5 0.0
17/10:00pm 20.5 16.7 -5.4 17 10.4 S 6 7 3 4 1019.4 1018.2 0.0
17/09:30pm 20.6 15.8 -6.1 16 10.6 S 11 11 6 6 1019.2 1018.0 0.0
17/09:00pm 22.5 17.4 -5.4 15 11.5 S 13 15 7 8 1018.9 1017.7 0.0
17/08:30pm 23.7 18.6 -5.3 14 12.1 S 13 15 7 8 1018.6 1017.4 0.0
17/08:00pm 24.2 19.5 -5.0 14 12.3 S 11 13 6 7 1018.0 1016.8 0.0
17/07:30pm 25.7 20.8 -3.8 14 12.9 S 13 17 7 9 1017.5 1016.3 0.0
17/07:00pm 26.6 21.3 -4.0 13 13.4 S 15 20 8 11 1017.1 1015.9 0.0
17/06:30pm 27.7 21.7 -3.2 13 13.9 S 19 26 10 14 1016.7 1015.5 0.0
17/06:00pm 28.8 22.8 -3.4 12 14.5 S 19 26 10 14 1016.5 1015.3 0.0
17/05:30pm 29.5 23.3 -2.9 12 14.8 S 20 32 11 17 1016.3 1015.1 0.0
17/05:00pm 30.1 23.5 -3.6 11 15.3 S 22 32 12 17 1016.1 1014.8 0.0
17/04:30pm 30.7 24.1 -3.1 11 15.6 S 22 28 12 15 1015.8 1014.6 0.0
17/04:00pm 30.6 24.4 -3.2 11 15.5 S 20 32 11 17 1015.8 1014.6 0.0
17/03:30pm 31.6 25.5 -2.4 11 16.0 S 20 33 11 18 1015.8 1014.6 0.0
17/03:00pm 31.4 25.3 -2.6 11 15.9 S 20 32 11 17 1016.2 1014.9 0.0
17/02:30pm 30.7 23.7 -3.1 11 15.6 S 24 32 13 17 1016.6 1015.4 0.0
17/02:00pm 31.3 25.2 -3.9 10 16.0 S 19 35 10 19 1017.2 1016.0 0.0
17/01:30pm 30.8 25.0 -4.3 10 15.9 S 17 26 9 14 1017.4 1016.2 0.0
17/01:00pm 30.0 24.9 -4.9 10 15.5 SSE 13 22 7 12 1017.7 1016.5 0.0
17/12:30pm 29.5 24.0 -5.3 10 15.3 SSE 15 24 8 13 1017.9 1016.7 0.0
17/12:00pm 29.1 24.5 -4.3 11 14.9 SSE 11 19 6 10 1018.3 1017.1 0.0
17/11:30am 27.9 22.5 -4.1 12 14.2 SE 15 24 8 13 1018.8 1017.6 0.0
17/11:00am 27.8 21.8 -3.1 13 13.9 SE 19 28 10 15 1019.3 1018.1 0.0
17/10:30am 26.8 20.2 -2.9 14 13.3 SE 22 28 12 15 1019.5 1018.4 0.0
17/10:00am 25.5 19.5 -3.0 15 12.6 SE 19 26 10 14 1019.6 1018.5 0.0
17/09:30am 24.7 19.2 -2.0 17 12.0 SE 17 24 9 13 1019.7 1018.6 0.0
17/09:00am 21.9 17.6 -5.0 16 11.1 SSE 9 13 5 7 1019.4 1018.2 -
17/08:30am 20.3 15.9 -5.5 17 10.4 S 9 13 5 7 1019.2 1018.0 -
17/08:00am 18.4 14.5 -6.3 18 9.6 WSW 6 9 3 5 1019.0 1017.8 -

Other Formats:

Comma delimited format used in spreadsheet applications
http://www.bom.gov.au/fwo/IDQ60801/IDQ60801.94338.axf

JavaScript Object Notation format (JSON) in row-major order
http://www.bom.gov.au/fwo/IDQ60801/IDQ60801.94338.json